Time;durP1;ratioP1;P1;durP2;ratioP2;P2;SDS_P1;SDS_P2;PMS_P1;PMS_P2;Temp;Humidity;BMP_temperature;BMP_pressure;BME280_temperature;BME280_humidity;BME280_pressure;Samples;Min_cycle;Max_cycle;Signal;HPM_P1;HPM_P2
2022/12/03 00:00:50;;;;;;;21.88;14.80;;;;;;;;;;5221084;28;20014;-74
2022/12/03 00:03:21;;;;;;;23.15;15.43;;;;;;;;;;5221836;28;20427;-74
2022/12/03 00:05:52;;;;;;;23.16;14.22;;;;;;;;;;5220593;28;20038;-74
2022/12/03 00:08:23;;;;;;;20.70;14.40;;;;;;;;;;5221585;28;20377;-76
2022/12/03 00:10:54;;;;;;;20.85;14.63;;;;;;;;;;5221489;28;20025;-74
2022/12/03 00:13:25;;;;;;;19.08;13.68;;;;;;;;;;5220847;28;20010;-74
2022/12/03 00:15:57;;;;;;;22.48;14.65;;;;;;;;;;5221619;28;20033;-75
2022/12/03 00:18:28;;;;;;;24.30;14.50;;;;;;;;;;5220652;28;20021;-75
2022/12/03 00:20:59;;;;;;;22.40;15.32;;;;;;;;;;5221174;28;20030;-75
2022/12/03 00:23:30;;;;;;;21.45;14.15;;;;;;;;;;5221126;28;20461;-74
2022/12/03 00:26:01;;;;;;;21.83;14.82;;;;;;;;;;5220450;28;20461;-74
2022/12/03 00:28:32;;;;;;;22.05;14.75;;;;;;;;;;5221093;28;20113;-75
2022/12/03 00:31:04;;;;;;;21.53;14.20;;;;;;;;;;5221015;28;20022;-74
2022/12/03 00:33:35;;;;;;;24.00;14.40;;;;;;;;;;5220267;28;20429;-75
2022/12/03 00:36:06;;;;;;;23.95;14.52;;;;;;;;;;5220730;28;20049;-73
2022/12/03 00:38:37;;;;;;;20.77;14.23;;;;;;;;;;5220991;28;20026;-73
2022/12/03 00:41:08;;;;;;;22.38;14.50;;;;;;;;;;5220354;28;20027;-73
2022/12/03 00:43:40;;;;;;;21.52;14.35;;;;;;;;;;5220534;28;20026;-73
2022/12/03 00:46:11;;;;;;;23.65;14.70;;;;;;;;;;5221050;28;20079;-74
2022/12/03 00:48:42;;;;;;;22.75;14.07;;;;;;;;;;5219906;28;20021;-74
2022/12/03 00:51:13;;;;;;;21.00;14.10;;;;;;;;;;5221021;28;20024;-74
2022/12/03 00:53:44;;;;;;;21.65;14.88;;;;;;;;;;5219460;28;20014;-74
2022/12/03 00:56:16;;;;;;;23.25;15.60;;;;;;;;;;5220898;28;20528;-74
2022/12/03 00:58:47;;;;;;;23.30;15.63;;;;;;;;;;5220237;28;20120;-74
2022/12/03 01:01:18;;;;;;;25.27;16.40;;;;;;;;;;5220338;28;20097;-73
2022/12/03 01:03:49;;;;;;;22.38;14.57;;;;;;;;;;5219879;28;20053;-74
2022/12/03 01:06:20;;;;;;;25.02;16.20;;;;;;;;;;5220255;28;20117;-74
2022/12/03 01:08:51;;;;;;;22.32;15.70;;;;;;;;;;5219347;28;20488;-74
2022/12/03 01:11:38;;;;;;;23.73;15.02;;;;;;;;;;5220230;28;20459;-74
2022/12/03 01:14:13;;;;;;;23.33;15.93;;;;;;;;;;5220426;28;20084;-74
2022/12/03 01:16:45;;;;;;;25.88;16.92;;;;;;;;;;5219268;28;20509;-74
2022/12/03 01:19:17;;;;;;;26.02;16.80;;;;;;;;;;5220480;28;20100;-74
2022/12/03 01:21:49;;;;;;;25.45;16.20;;;;;;;;;;5218925;28;20032;-74
2022/12/03 01:24:20;;;;;;;24.60;15.52;;;;;;;;;;5220443;28;20117;-74
2022/12/03 01:26:51;;;;;;;25.90;16.08;;;;;;;;;;5220254;28;20028;-74
2022/12/03 01:29:22;;;;;;;23.40;15.25;;;;;;;;;;5219278;28;20026;-76
2022/12/03 01:34:51;;;;;;;23.75;15.45;;;;;;;;;;5219641;28;20421;-76
2022/12/03 01:37:23;;;;;;;28.23;16.80;;;;;;;;;;5219286;28;20499;-76
2022/12/03 01:39:54;;;;;;;27.67;16.92;;;;;;;;;;5219855;28;20022;-76
2022/12/03 01:42:27;;;;;;;24.50;16.30;;;;;;;;;;5219727;28;20026;-73
2022/12/03 01:45:00;;;;;;;25.20;16.30;;;;;;;;;;5219064;28;20147;-73
2022/12/03 01:47:35;;;;;;;24.52;15.02;;;;;;;;;;5219957;28;20363;-73
2022/12/03 01:50:12;;;;;;;25.25;16.65;;;;;;;;;;5218935;28;20029;-74
2022/12/03 01:52:44;;;;;;;25.80;16.13;;;;;;;;;;5219518;28;20433;-74
2022/12/03 01:55:17;;;;;;;28.20;18.38;;;;;;;;;;5219854;28;20052;-73
2022/12/03 01:57:50;;;;;;;29.20;19.40;;;;;;;;;;5218662;28;20026;-73
2022/12/03 02:00:22;;;;;;;26.20;17.17;;;;;;;;;;5219638;28;20077;-73
2022/12/03 02:02:59;;;;;;;25.33;15.40;;;;;;;;;;5219625;28;20018;-73
2022/12/03 02:05:30;;;;;;;27.88;18.33;;;;;;;;;;5218613;28;20469;-75
2022/12/03 02:08:21;;;;;;;29.00;18.65;;;;;;;;;;5219383;28;20022;-75
2022/12/03 02:10:53;;;;;;;28.25;18.67;;;;;;;;;;5219059;28;20360;-75
2022/12/03 02:13:24;;;;;;;27.23;18.20;;;;;;;;;;5218796;28;20037;-74
2022/12/03 02:15:55;;;;;;;28.70;17.92;;;;;;;;;;5219406;28;20030;-72
2022/12/03 02:18:26;;;;;;;25.85;17.30;;;;;;;;;;5223124;28;20032;-74
2022/12/03 02:21:04;;;;;;;27.27;18.02;;;;;;;;;;5223696;28;20030;-74
2022/12/03 02:23:40;;;;;;;28.67;17.45;;;;;;;;;;5223589;28;20065;-74
2022/12/03 02:26:11;;;;;;;26.75;18.15;;;;;;;;;;5222976;28;20036;-73
2022/12/03 02:28:42;;;;;;;28.58;18.35;;;;;;;;;;5222986;28;20022;-74
2022/12/03 02:31:14;;;;;;;29.15;17.90;;;;;;;;;;5223776;28;20029;-73
2022/12/03 02:33:45;;;;;;;28.50;16.48;;;;;;;;;;5222080;28;20025;-73
2022/12/03 02:36:16;;;;;;;25.17;17.75;;;;;;;;;;5223480;28;20118;-74
2022/12/03 02:38:48;;;;;;;29.13;18.95;;;;;;;;;;5222736;28;20072;-73
2022/12/03 02:44:09;;;;;;;25.50;17.83;;;;;;;;;;5223350;28;20030;-73
2022/12/03 02:46:40;;;;;;;27.42;18.08;;;;;;;;;;5221832;28;20469;-74
2022/12/03 02:49:12;;;;;;;29.95;19.48;;;;;;;;;;5223307;28;20018;-73
2022/12/03 02:51:43;;;;;;;27.90;18.25;;;;;;;;;;5222827;28;20029;-73
2022/12/03 02:54:14;;;;;;;29.50;19.40;;;;;;;;;;5222263;28;20021;-73
2022/12/03 02:56:46;;;;;;;29.08;17.95;;;;;;;;;;5222453;28;20018;-73
2022/12/03 02:59:17;;;;;;;25.48;15.82;;;;;;;;;;5222975;28;20109;-73
2022/12/03 03:01:48;;;;;;;26.42;16.77;;;;;;;;;;5221544;28;20488;-73
2022/12/03 03:04:19;;;;;;;31.73;18.60;;;;;;;;;;5222915;28;20057;-73
2022/12/03 03:06:51;;;;;;;27.88;17.60;;;;;;;;;;5222082;28;20045;-73
2022/12/03 03:09:22;;;;;;;26.85;17.77;;;;;;;;;;5221720;28;20025;-73
2022/12/03 03:11:53;;;;;;;26.90;17.85;;;;;;;;;;5222522;28;20041;-73
2022/12/03 03:14:24;;;;;;;28.48;18.20;;;;;;;;;;5221689;28;20087;-73
2022/12/03 03:16:55;;;;;;;27.65;17.65;;;;;;;;;;5222550;28;20024;-74
2022/12/03 03:19:27;;;;;;;27.30;17.48;;;;;;;;;;5222680;28;20018;-73
2022/12/03 03:21:58;;;;;;;28.77;19.05;;;;;;;;;;5221699;28;20030;-73
2022/12/03 03:24:30;;;;;;;29.20;17.92;;;;;;;;;;5222204;28;20057;-73
2022/12/03 03:27:02;;;;;;;27.60;18.60;;;;;;;;;;5222371;28;20030;-73
2022/12/03 03:29:33;;;;;;;28.95;18.88;;;;;;;;;;5221618;28;20048;-73
2022/12/03 03:32:05;;;;;;;27.98;18.38;;;;;;;;;;5222247;28;20109;-73
2022/12/03 03:34:36;;;;;;;29.02;18.80;;;;;;;;;;5222167;28;20049;-73
2022/12/03 03:37:07;;;;;;;28.02;18.50;;;;;;;;;;5221273;28;20105;-73
2022/12/03 03:39:54;;;;;;;30.45;20.02;;;;;;;;;;5178907;28;20191;-73
2022/12/03 03:42:25;;;;;;;27.60;18.45;;;;;;;;;;5221341;28;20030;-74
2022/12/03 03:44:57;;;;;;;31.77;20.67;;;;;;;;;;5221834;28;20044;-74
2022/12/03 03:47:28;;;;;;;28.10;20.00;;;;;;;;;;5221968;28;20018;-73
2022/12/03 03:49:59;;;;;;;30.15;18.52;;;;;;;;;;5221306;28;20038;-73
2022/12/03 03:52:30;;;;;;;28.63;20.20;;;;;;;;;;5222065;28;20026;-73
2022/12/03 03:55:02;;;;;;;27.75;19.20;;;;;;;;;;5221809;28;20026;-73
2022/12/03 03:57:33;;;;;;;28.65;18.67;;;;;;;;;;5220974;28;20057;-73
2022/12/03 04:00:06;;;;;;;29.40;19.33;;;;;;;;;;5221592;28;20101;-74
2022/12/03 04:02:39;;;;;;;30.92;19.63;;;;;;;;;;5221864;28;20057;-73
2022/12/03 04:05:15;;;;;;;25.80;16.92;;;;;;;;;;5221176;28;20068;-73
2022/12/03 04:07:46;;;;;;;31.00;19.05;;;;;;;;;;5221291;28;20108;-73
2022/12/03 04:13:09;;;;;;;30.33;19.17;;;;;;;;;;5181214;28;20034;-73
2022/12/03 04:15:40;;;;;;;29.17;18.60;;;;;;;;;;5221190;28;20033;-73
2022/12/03 04:23:50;;;;;;;31.83;20.55;;;;;;;;;;5221193;28;20022;-74
2022/12/03 04:29:11;;;;;;;30.63;19.73;;;;;;;;;;5221680;28;20026;-73
2022/12/03 04:37:23;;;;;;;28.75;19.00;;;;;;;;;;5221306;28;20030;-74
2022/12/03 04:39:54;;;;;;;32.20;20.63;;;;;;;;;;5219647;28;20017;-73
2022/12/03 04:42:25;;;;;;;31.25;20.83;;;;;;;;;;5220840;28;20025;-73
2022/12/03 04:44:57;;;;;;;31.42;20.75;;;;;;;;;;5220833;28;20061;-73
2022/12/03 04:47:28;;;;;;;32.50;20.88;;;;;;;;;;5220129;28;20022;-74
2022/12/03 04:49:59;;;;;;;32.92;22.17;;;;;;;;;;5220608;28;20022;-73
2022/12/03 04:52:30;;;;;;;35.88;22.78;;;;;;;;;;5220623;28;20515;-74
2022/12/03 04:55:01;;;;;;;33.04;22.38;;;;;;;;;;5219942;28;20090;-73
2022/12/03 04:57:33;;;;;;;28.98;19.50;;;;;;;;;;5220724;28;20528;-73
2022/12/03 05:00:04;;;;;;;28.40;18.70;;;;;;;;;;5219873;28;20079;-73
2022/12/03 05:02:35;;;;;;;29.63;19.17;;;;;;;;;;5220376;28;20026;-73
2022/12/03 05:05:07;;;;;;;28.20;18.58;;;;;;;;;;5220564;28;20064;-74
2022/12/03 05:07:38;;;;;;;31.55;21.42;;;;;;;;;;5219634;28;20034;-73
2022/12/03 05:10:09;;;;;;;30.27;20.02;;;;;;;;;;5220704;28;20038;-73
2022/12/03 05:12:41;;;;;;;30.85;20.80;;;;;;;;;;5220053;28;20033;-73
2022/12/03 05:15:12;;;;;;;28.67;19.10;;;;;;;;;;5219787;28;20034;-73
2022/12/03 05:17:43;;;;;;;30.65;19.90;;;;;;;;;;5220094;28;20057;-73
2022/12/03 05:23:04;;;;;;;30.15;20.38;;;;;;;;;;5219628;28;20473;-73
2022/12/03 05:25:35;;;;;;;31.20;19.33;;;;;;;;;;5219911;28;20033;-73
2022/12/03 05:28:07;;;;;;;31.40;20.30;;;;;;;;;;5219344;28;20025;-73
2022/12/03 05:30:38;;;;;;;31.20;20.02;;;;;;;;;;5219901;28;20014;-74
2022/12/03 05:33:09;;;;;;;34.36;20.54;;;;;;;;;;5220285;28;20052;-73
2022/12/03 05:35:40;;;;;;;35.22;22.92;;;;;;;;;;5218648;28;20057;-73
2022/12/03 05:38:12;;;;;;;33.38;21.90;;;;;;;;;;5220131;28;20113;-73
2022/12/03 05:40:43;;;;;;;33.53;21.63;;;;;;;;;;5219802;28;20025;-73
2022/12/03 05:43:14;;;;;;;33.28;21.45;;;;;;;;;;5219268;28;20040;-73
2022/12/03 05:45:45;;;;;;;31.83;20.60;;;;;;;;;;5219363;28;20465;-73
2022/12/03 05:48:17;;;;;;;32.48;21.98;;;;;;;;;;5219971;28;20026;-73
2022/12/03 05:50:48;;;;;;;33.22;20.38;;;;;;;;;;5218269;28;20065;-73
2022/12/03 05:53:19;;;;;;;33.72;22.60;;;;;;;;;;5220032;28;20037;-74
2022/12/03 05:55:50;;;;;;;32.33;21.88;;;;;;;;;;5219601;28;20097;-74
2022/12/03 05:58:21;;;;;;;31.74;21.14;;;;;;;;;;5218909;28;20045;-74
2022/12/03 06:00:52;;;;;;;33.28;20.92;;;;;;;;;;5219538;28;20037;-74
2022/12/03 06:03:24;;;;;;;31.92;19.72;;;;;;;;;;5218872;28;20018;-74
2022/12/03 06:05:55;;;;;;;30.83;21.02;;;;;;;;;;5219262;28;20027;-74
2022/12/03 06:08:26;;;;;;;33.88;21.48;;;;;;;;;;5219315;28;20026;-73
2022/12/03 06:10:57;;;;;;;33.28;21.52;;;;;;;;;;5218672;28;20397;-74
2022/12/03 06:13:28;;;;;;;37.28;21.65;;;;;;;;;;5219340;28;20035;-73
2022/12/03 06:15:59;;;;;;;36.14;23.18;;;;;;;;;;5219581;28;20093;-74
2022/12/03 06:18:31;;;;;;;36.13;22.38;;;;;;;;;;5218712;28;20049;-74
2022/12/03 06:21:02;;;;;;;33.55;21.13;;;;;;;;;;5219298;28;20033;-74
2022/12/03 06:23:33;;;;;;;38.28;23.33;;;;;;;;;;5219402;28;20042;-74
2022/12/03 06:26:04;;;;;;;36.05;22.48;;;;;;;;;;5218315;28;20493;-74
2022/12/03 06:28:35;;;;;;;33.06;21.66;;;;;;;;;;5219033;28;20073;-74
2022/12/03 06:31:06;;;;;;;35.58;22.15;;;;;;;;;;5219148;28;20473;-74
2022/12/03 06:33:38;;;;;;;37.17;22.15;;;;;;;;;;5218793;28;20466;-74
2022/12/03 06:36:09;;;;;;;34.92;22.25;;;;;;;;;;5219076;28;20413;-74
2022/12/03 06:38:40;;;;;;;33.83;21.13;;;;;;;;;;5218044;28;20033;-74
2022/12/03 06:41:11;;;;;;;33.03;21.93;;;;;;;;;;5219658;28;20090;-74
2022/12/03 06:43:43;;;;;;;36.22;21.82;;;;;;;;;;5218846;28;20026;-74
2022/12/03 06:46:14;;;;;;;32.58;21.02;;;;;;;;;;5218336;28;20057;-73
2022/12/03 06:48:45;;;;;;;34.42;21.33;;;;;;;;;;5218571;28;20022;-74
2022/12/03 06:51:16;;;;;;;34.15;20.60;;;;;;;;;;5219297;28;20088;-74
2022/12/03 06:53:47;;;;;;;32.38;20.38;;;;;;;;;;5218318;28;20536;-74
2022/12/03 06:56:18;;;;;;;32.03;20.50;;;;;;;;;;5219552;28;20025;-74
2022/12/03 06:58:50;;;;;;;31.17;21.25;;;;;;;;;;5218814;28;20026;-74
2022/12/03 07:01:21;;;;;;;34.93;21.70;;;;;;;;;;5218256;28;20056;-74
2022/12/03 07:03:52;;;;;;;32.00;20.23;;;;;;;;;;5222154;28;20026;-74
2022/12/03 07:06:24;;;;;;;32.20;20.25;;;;;;;;;;5222082;28;20500;-74
2022/12/03 07:08:55;;;;;;;32.13;20.58;;;;;;;;;;5222414;28;20022;-75
2022/12/03 07:11:32;;;;;;;31.17;20.47;;;;;;;;;;5222595;28;20496;-75
2022/12/03 07:14:05;;;;;;;38.17;24.33;;;;;;;;;;5221779;28;20041;-74
2022/12/03 07:16:36;;;;;;;33.38;20.35;;;;;;;;;;5222979;28;20457;-74
2022/12/03 07:19:08;;;;;;;36.25;21.98;;;;;;;;;;5222569;28;20028;-74
2022/12/03 07:21:39;;;;;;;33.72;21.23;;;;;;;;;;5222460;28;20479;-74
2022/12/03 07:24:11;;;;;;;35.55;20.80;;;;;;;;;;5222780;28;20033;-73
2022/12/03 07:26:42;;;;;;;32.03;19.92;;;;;;;;;;5222215;28;20072;-74
2022/12/03 07:29:13;;;;;;;31.15;20.15;;;;;;;;;;5221881;28;20026;-73
2022/12/03 07:31:44;;;;;;;31.43;20.40;;;;;;;;;;5221922;28;20014;-74
2022/12/03 07:34:15;;;;;;;32.60;20.54;;;;;;;;;;5221962;28;20070;-74
2022/12/03 07:36:47;;;;;;;33.38;22.02;;;;;;;;;;5221120;28;20017;-74
2022/12/03 07:39:18;;;;;;;33.56;20.60;;;;;;;;;;5222176;28;20022;-74
2022/12/03 07:41:49;;;;;;;30.40;18.74;;;;;;;;;;5220839;28;20060;-74
2022/12/03 07:44:20;;;;;;;34.15;21.98;;;;;;;;;;5221855;28;20026;-73
2022/12/03 07:46:51;;;;;;;31.35;20.48;;;;;;;;;;5221872;28;20068;-73
2022/12/03 07:49:22;;;;;;;32.56;20.28;;;;;;;;;;5220802;28;20030;-73
2022/12/03 07:51:55;;;;;;;33.10;20.77;;;;;;;;;;5221681;28;20104;-73
2022/12/03 07:54:26;;;;;;;30.38;19.27;;;;;;;;;;5221624;28;20034;-74
2022/12/03 07:56:58;;;;;;;31.22;20.20;;;;;;;;;;5220907;28;20029;-74
2022/12/03 07:59:29;;;;;;;34.42;19.63;;;;;;;;;;5221554;28;20114;-75
2022/12/03 08:02:01;;;;;;;32.63;20.98;;;;;;;;;;5221631;28;20026;-74
2022/12/03 08:04:32;;;;;;;30.20;20.00;;;;;;;;;;5221007;28;20127;-73
2022/12/03 08:07:03;;;;;;;28.77;18.77;;;;;;;;;;5221544;28;20026;-74
2022/12/03 08:09:37;;;;;;;34.83;20.40;;;;;;;;;;5221615;28;20100;-73
2022/12/03 08:12:16;;;;;;;32.53;19.15;;;;;;;;;;5229525;28;20381;-74
2022/12/03 08:14:47;;;;;;;31.77;18.15;;;;;;;;;;5240424;28;20052;-73
2022/12/03 08:17:20;;;;;;;33.45;19.80;;;;;;;;;;5240886;28;20097;-75
2022/12/03 08:19:51;;;;;;;33.22;20.00;;;;;;;;;;5241558;28;20104;-73
2022/12/03 08:22:23;;;;;;;32.10;18.77;;;;;;;;;;5241553;28;20105;-70
2022/12/03 08:24:54;;;;;;;30.77;18.73;;;;;;;;;;5240434;28;20464;-73
2022/12/03 08:27:25;;;;;;;31.10;18.00;;;;;;;;;;5235624;28;20401;-73
2022/12/03 08:30:00;;;;;;;32.67;20.40;;;;;;;;;;5241224;28;20030;-74
2022/12/03 08:32:31;;;;;;;29.48;17.27;;;;;;;;;;5240950;28;20453;-73
2022/12/03 08:35:08;;;;;;;31.55;19.15;;;;;;;;;;5240987;28;20057;-74
2022/12/03 08:37:39;;;;;;;28.98;17.27;;;;;;;;;;5240821;28;20022;-73
2022/12/03 08:40:19;;;;;;;31.25;18.05;;;;;;;;;;5240472;28;20040;-73
2022/12/03 08:42:50;;;;;;;32.03;18.87;;;;;;;;;;5240233;28;20045;-72
2022/12/03 08:45:22;;;;;;;31.08;18.13;;;;;;;;;;5240054;28;20468;-73
2022/12/03 08:48:00;;;;;;;33.05;18.95;;;;;;;;;;5240837;28;20021;-73
2022/12/03 08:50:37;;;;;;;30.52;18.63;;;;;;;;;;5240645;28;20021;-74
2022/12/03 08:53:11;;;;;;;31.15;17.90;;;;;;;;;;5240361;28;20075;-72
2022/12/03 08:55:46;;;;;;;32.97;18.88;;;;;;;;;;5240570;28;20431;-73
2022/12/03 08:58:20;;;;;;;31.50;17.85;;;;;;;;;;5241053;28;20433;-73
2022/12/03 09:00:56;;;;;;;33.83;19.70;;;;;;;;;;5239955;28;20021;-73
2022/12/03 09:03:29;;;;;;;32.83;19.42;;;;;;;;;;5240936;28;20093;-73
2022/12/03 09:06:00;;;;;;;32.13;18.27;;;;;;;;;;5239949;28;20499;-74
2022/12/03 09:08:31;;;;;;;32.88;18.63;;;;;;;;;;5240282;28;20018;-73
2022/12/03 09:11:03;;;;;;;34.42;20.63;;;;;;;;;;5227090;28;20029;-73
2022/12/03 09:13:34;;;;;;;31.38;18.70;;;;;;;;;;5219074;28;20068;-73
2022/12/03 09:16:05;;;;;;;31.90;18.27;;;;;;;;;;5231126;28;20381;-74
2022/12/03 09:18:36;;;;;;;28.08;17.85;;;;;;;;;;5240730;28;20045;-73
2022/12/03 09:21:07;;;;;;;35.55;19.20;;;;;;;;;;5239965;28;20587;-73
2022/12/03 09:23:39;;;;;;;40.70;20.38;;;;;;;;;;5240543;28;20056;-73
2022/12/03 09:26:10;;;;;;;34.90;19.48;;;;;;;;;;5239927;28;20033;-74
2022/12/03 09:28:41;;;;;;;34.87;19.73;;;;;;;;;;5239149;28;20512;-71
2022/12/03 09:31:13;;;;;;;34.15;18.95;;;;;;;;;;5240366;28;20076;-72
2022/12/03 09:33:44;;;;;;;28.88;17.05;;;;;;;;;;5239450;28;20017;-72
2022/12/03 09:36:15;;;;;;;32.90;18.10;;;;;;;;;;5239243;28;20099;-71
2022/12/03 09:38:46;;;;;;;31.58;17.50;;;;;;;;;;5240122;28;20021;-72
2022/12/03 09:41:17;;;;;;;33.83;18.75;;;;;;;;;;5239754;28;20025;-71
2022/12/03 09:43:49;;;;;;;33.47;17.92;;;;;;;;;;5239758;28;20041;-73
2022/12/03 09:46:21;;;;;;;35.65;19.40;;;;;;;;;;5240400;28;20026;-73
2022/12/03 09:48:54;;;;;;;30.50;18.60;;;;;;;;;;5239527;28;20017;-72
2022/12/03 09:51:28;;;;;;;35.17;19.70;;;;;;;;;;5240204;28;20017;-72
2022/12/03 09:54:01;;;;;;;30.20;16.90;;;;;;;;;;5239957;28;20104;-72
2022/12/03 09:56:34;;;;;;;33.28;19.42;;;;;;;;;;5239159;28;20376;-72
2022/12/03 09:59:11;;;;;;;30.05;17.20;;;;;;;;;;5240056;28;20036;-73
2022/12/03 10:01:43;;;;;;;33.65;17.95;;;;;;;;;;5239833;28;20096;-72
2022/12/03 10:04:14;;;;;;;28.67;16.67;;;;;;;;;;5239495;28;20175;-76
2022/12/03 10:06:45;;;;;;;31.85;17.38;;;;;;;;;;5239473;28;20112;-72
2022/12/03 10:09:20;;;;;;;31.33;17.98;;;;;;;;;;5239397;28;20028;-73
2022/12/03 10:11:51;;;;;;;28.50;16.20;;;;;;;;;;5239899;28;20024;-73
2022/12/03 10:14:23;;;;;;;26.02;15.27;;;;;;;;;;5239875;28;20013;-74
2022/12/03 10:16:54;;;;;;;27.05;16.08;;;;;;;;;;5238796;28;20021;-74
2022/12/03 10:19:30;;;;;;;27.77;16.20;;;;;;;;;;5239592;28;20052;-74
2022/12/03 10:22:02;;;;;;;25.15;14.38;;;;;;;;;;5239484;28;20021;-75
2022/12/03 10:24:34;;;;;;;25.77;15.35;;;;;;;;;;5238866;28;20029;-74
2022/12/03 10:27:20;;;;;;;26.80;15.15;;;;;;;;;;5239460;28;20105;-74
2022/12/03 10:29:58;;;;;;;23.83;14.87;;;;;;;;;;5239899;28;20091;-74
2022/12/03 10:32:40;;;;;;;24.75;14.07;;;;;;;;;;5238824;28;20032;-74
2022/12/03 10:35:12;;;;;;;23.35;13.20;;;;;;;;;;5239869;28;20443;-73
2022/12/03 10:38:02;;;;;;;25.60;15.30;;;;;;;;;;5240268;28;20029;-76
2022/12/03 10:40:35;;;;;;;24.75;15.05;;;;;;;;;;5243467;28;20022;-73
2022/12/03 10:43:18;;;;;;;22.83;13.43;;;;;;;;;;5243773;28;20040;-74
2022/12/03 10:45:50;;;;;;;26.60;15.23;;;;;;;;;;5231146;28;20034;-72
2022/12/03 10:48:26;;;;;;;26.38;15.32;;;;;;;;;;5222575;28;20021;-73
2022/12/03 10:50:57;;;;;;;24.88;14.63;;;;;;;;;;5223139;28;20374;-72
2022/12/03 10:53:29;;;;;;;24.04;14.10;;;;;;;;;;5222254;28;20030;-74
2022/12/03 10:56:02;;;;;;;28.27;15.32;;;;;;;;;;5222407;28;20040;-74
2022/12/03 10:58:34;;;;;;;23.35;13.30;;;;;;;;;;5221914;28;20021;-73
2022/12/03 11:01:13;;;;;;;24.35;13.45;;;;;;;;;;5222529;28;20029;-72
2022/12/03 11:03:44;;;;;;;26.60;16.00;;;;;;;;;;5222735;28;20022;-73
2022/12/03 11:06:17;;;;;;;26.85;16.77;;;;;;;;;;5222322;28;20034;-73
2022/12/03 11:08:50;;;;;;;24.52;14.35;;;;;;;;;;5222416;28;20017;-72
2022/12/03 11:11:28;;;;;;;24.15;14.90;;;;;;;;;;5222337;28;20018;-73
2022/12/03 11:14:00;;;;;;;20.33;12.55;;;;;;;;;;5221976;28;20025;-72
2022/12/03 11:16:37;;;;;;;23.52;14.55;;;;;;;;;;5221737;28;20018;-73
2022/12/03 11:19:16;;;;;;;21.98;13.73;;;;;;;;;;5220438;28;20041;-72
2022/12/03 11:22:02;;;;;;;20.70;13.32;;;;;;;;;;5219093;28;20575;-73
2022/12/03 11:24:34;;;;;;;21.17;12.27;;;;;;;;;;5220320;28;20471;-73
2022/12/03 11:27:13;;;;;;;28.23;17.70;;;;;;;;;;5219529;28;20026;-73
2022/12/03 11:29:46;;;;;;;25.88;16.30;;;;;;;;;;5221109;28;20037;-73
2022/12/03 11:32:44;;;;;;;27.60;15.38;;;;;;;;;;5221752;28;20040;-72
2022/12/03 11:35:24;;;;;;;24.70;16.30;;;;;;;;;;5183715;28;20454;-72
2022/12/03 11:38:15;;;;;;;21.65;14.77;;;;;;;;;;5222201;28;20026;-72
2022/12/03 11:41:05;;;;;;;24.50;14.75;;;;;;;;;;5220841;28;20030;-72
2022/12/03 11:43:49;;;;;;;25.33;15.23;;;;;;;;;;5222050;28;20056;-72
2022/12/03 11:46:37;;;;;;;22.02;13.63;;;;;;;;;;5222074;28;20044;-73
2022/12/03 11:49:23;;;;;;;25.98;15.35;;;;;;;;;;5219728;28;20018;-72
2022/12/03 11:51:55;;;;;;;21.67;13.85;;;;;;;;;;5221543;28;20022;-72
2022/12/03 11:54:26;;;;;;;21.65;13.73;;;;;;;;;;5221705;28;20351;-73
2022/12/03 11:56:57;;;;;;;26.38;16.27;;;;;;;;;;5220925;28;20022;-73
2022/12/03 11:59:28;;;;;;;26.70;16.13;;;;;;;;;;5221809;28;20101;-72
2022/12/03 12:02:00;;;;;;;25.10;15.30;;;;;;;;;;5221105;28;20025;-72
2022/12/03 12:04:33;;;;;;;24.77;16.25;;;;;;;;;;5221348;28;20033;-75
2022/12/03 12:07:05;;;;;;;25.73;17.10;;;;;;;;;;5221225;28;20112;-72
2022/12/03 12:09:46;;;;;;;23.75;15.02;;;;;;;;;;5220644;28;20026;-73
2022/12/03 12:12:25;;;;;;;23.05;14.98;;;;;;;;;;5221675;28;20033;-73
2022/12/03 12:14:56;;;;;;;;;;;;;;;;;;5221889;28;20030;-72
2022/12/03 12:17:29;;;;;;;24.84;15.38;;;;;;;;;;5220545;28;20491;-72
2022/12/03 12:20:19;;;;;;;20.52;13.23;;;;;;;;;;5220949;28;20115;-72
2022/12/03 12:22:51;;;;;;;24.65;15.43;;;;;;;;;;5220430;28;20025;-72
2022/12/03 12:25:40;;;;;;;25.90;15.90;;;;;;;;;;5221034;28;20083;-70
2022/12/03 12:28:12;;;;;;;26.40;16.55;;;;;;;;;;5221331;28;20021;-71
2022/12/03 12:30:43;;;;;;;27.13;17.10;;;;;;;;;;5220053;28;20378;-70
2022/12/03 12:33:21;;;;;;;21.83;14.82;;;;;;;;;;5218496;28;20097;-71
2022/12/03 12:35:53;;;;;;;26.58;17.80;;;;;;;;;;5233637;28;20049;-71
2022/12/03 12:38:24;;;;;;;23.27;15.27;;;;;;;;;;5240310;28;20021;-70
2022/12/03 12:40:55;;;;;;;24.63;15.50;;;;;;;;;;5241086;28;20029;-73
2022/12/03 12:43:28;;;;;;;25.03;16.57;;;;;;;;;;5241227;28;20075;-72
2022/12/03 12:46:04;;;;;;;24.98;16.13;;;;;;;;;;5240535;28;20529;-71
2022/12/03 12:48:37;;;;;;;24.33;14.90;;;;;;;;;;5241435;28;20026;-72
2022/12/03 12:51:10;;;;;;;25.05;17.45;;;;;;;;;;5239962;28;20014;-70
2022/12/03 12:53:43;;;;;;;23.52;15.20;;;;;;;;;;5229874;28;20036;-72
2022/12/03 12:56:28;;;;;;;27.17;17.95;;;;;;;;;;5218767;28;20022;-70
2022/12/03 12:59:07;;;;;;;27.70;17.13;;;;;;;;;;5217134;28;20029;-71
2022/12/03 13:01:39;;;;;;;29.08;16.90;;;;;;;;;;5216270;28;20288;-71
2022/12/03 13:04:12;;;;;;;32.13;19.75;;;;;;;;;;5219780;28;20431;-72
2022/12/03 13:06:44;;;;;;;27.13;16.67;;;;;;;;;;5218859;28;20425;-71
2022/12/03 13:09:17;;;;;;;27.60;17.45;;;;;;;;;;5220326;28;20037;-72
2022/12/03 13:11:54;;;;;;;30.05;18.75;;;;;;;;;;5219525;28;20014;-72
2022/12/03 13:14:33;;;;;;;28.38;17.77;;;;;;;;;;5219632;28;20029;-72
2022/12/03 13:17:12;;;;;;;27.67;18.55;;;;;;;;;;5220256;28;20041;-71
2022/12/03 13:19:44;;;;;;;28.58;17.15;;;;;;;;;;5218908;28;20036;-73
2022/12/03 13:22:15;;;;;;;32.00;18.75;;;;;;;;;;5216935;28;20018;-70
2022/12/03 13:24:50;;;;;;;31.73;19.42;;;;;;;;;;5218566;28;20037;-72
2022/12/03 13:27:25;;;;;;;30.60;18.77;;;;;;;;;;5218699;28;20105;-73
2022/12/03 13:30:00;;;;;;;36.83;22.65;;;;;;;;;;5219596;28;20057;-71
2022/12/03 13:32:32;;;;;;;29.50;18.33;;;;;;;;;;5219300;28;20022;-71
2022/12/03 13:35:21;;;;;;;33.00;19.17;;;;;;;;;;5222306;28;20042;-70
2022/12/03 13:37:52;;;;;;;32.58;19.60;;;;;;;;;;5237622;28;20033;-70
2022/12/03 13:40:23;;;;;;;30.25;17.75;;;;;;;;;;5237219;28;20358;-71
2022/12/03 13:42:55;;;;;;;33.85;19.73;;;;;;;;;;5237933;28;20033;-71
2022/12/03 13:45:33;;;;;;;35.42;19.95;;;;;;;;;;5237819;28;20061;-72
2022/12/03 13:48:17;;;;;;;31.10;18.73;;;;;;;;;;5237429;28;20021;-71
2022/12/03 13:50:50;;;;;;;33.00;19.35;;;;;;;;;;5238116;28;20013;-71
2022/12/03 13:53:26;;;;;;;30.53;18.27;;;;;;;;;;5239952;28;20021;-73
2022/12/03 13:56:15;;;;;;;32.03;18.33;;;;;;;;;;5239062;28;20015;-72
2022/12/03 13:58:46;;;;;;;35.60;21.73;;;;;;;;;;5239714;28;20033;-70
2022/12/03 14:01:18;;;;;;;32.63;19.02;;;;;;;;;;5239605;28;20018;-72
2022/12/03 14:03:49;;;;;;;35.40;20.03;;;;;;;;;;5239244;28;20032;-72
2022/12/03 14:06:20;;;;;;;36.57;21.33;;;;;;;;;;5239296;28;20108;-72
2022/12/03 14:08:51;;;;;;;35.67;21.33;;;;;;;;;;5238747;28;20044;-71
2022/12/03 14:14:13;;;;;;;37.65;23.02;;;;;;;;;;5240136;28;20116;-72
2022/12/03 14:16:45;;;;;;;32.42;20.80;;;;;;;;;;5238240;28;20108;-71
2022/12/03 14:19:16;;;;;;;35.70;23.25;;;;;;;;;;5239885;28;20445;-73
2022/12/03 14:21:47;;;;;;;35.53;21.27;;;;;;;;;;5239227;28;20071;-71
2022/12/03 14:24:18;;;;;;;36.66;20.88;;;;;;;;;;5238910;28;20032;-72
2022/12/03 14:26:49;;;;;;;39.70;23.10;;;;;;;;;;5239210;28;20138;-73
2022/12/03 14:29:21;;;;;;;37.00;22.64;;;;;;;;;;5239450;28;20434;-72
2022/12/03 14:31:52;;;;;;;38.28;21.65;;;;;;;;;;5239056;28;20381;-72
2022/12/03 14:34:23;;;;;;;35.92;19.85;;;;;;;;;;5239448;28;20038;-72
2022/12/03 14:36:54;;;;;;;36.92;20.73;;;;;;;;;;5216492;28;20087;-71
2022/12/03 14:39:25;;;;;;;34.17;19.02;;;;;;;;;;5217227;28;20026;-71
2022/12/03 14:42:12;;;;;;;42.23;23.67;;;;;;;;;;5216665;28;20543;-71
2022/12/03 14:44:44;;;;;;;35.37;21.73;;;;;;;;;;5215392;28;20406;-71
2022/12/03 14:47:21;;;;;;;35.67;21.13;;;;;;;;;;5216565;28;20084;-71
2022/12/03 14:49:52;;;;;;;41.85;22.05;;;;;;;;;;5216384;28;20088;-71
2022/12/03 14:52:23;;;;;;;43.58;23.55;;;;;;;;;;5215944;28;20022;-71
2022/12/03 14:54:54;;;;;;;38.20;21.70;;;;;;;;;;5217742;28;20034;-71
2022/12/03 14:57:26;;;;;;;37.97;21.67;;;;;;;;;;5218215;28;20033;-71
2022/12/03 14:59:57;;;;;;;42.38;24.58;;;;;;;;;;5217876;28;20773;-71
2022/12/03 15:02:29;;;;;;;43.30;23.50;;;;;;;;;;5218473;28;20034;-71
2022/12/03 15:05:00;;;;;;;38.90;21.52;;;;;;;;;;5217738;28;20065;-71
2022/12/03 15:07:31;;;;;;;36.08;21.35;;;;;;;;;;5218957;28;20018;-71
2022/12/03 15:10:02;;;;;;;41.58;22.30;;;;;;;;;;5218743;28;20018;-71
2022/12/03 15:12:34;;;;;;;39.90;21.27;;;;;;;;;;5217820;28;20026;-71
2022/12/03 15:15:05;;;;;;;39.40;22.50;;;;;;;;;;5218878;28;20065;-70
2022/12/03 15:17:36;;;;;;;37.35;21.20;;;;;;;;;;5218717;28;20036;-69
2022/12/03 15:20:08;;;;;;;37.38;22.73;;;;;;;;;;5218066;28;20034;-70